sensor_id;sensor_type;location;lat;lon;timestamp;pressure;altitude;pressure_sealevel;temperature
63689;BMP280;54895;40.928;14.480;2024-03-08T00:00:18;101549.31;;;18.79
63689;BMP280;54895;40.928;14.480;2024-03-08T00:02:46;101538.38;;;17.91
63689;BMP280;54895;40.928;14.480;2024-03-08T00:05:14;101530.56;;;17.56
63689;BMP280;54895;40.928;14.480;2024-03-08T00:07:41;101530.72;;;17.80
63689;BMP280;54895;40.928;14.480;2024-03-08T00:10:10;101527.19;;;17.25
63689;BMP280;54895;40.928;14.480;2024-03-08T00:12:38;101521.06;;;17.02
63689;BMP280;54895;40.928;14.480;2024-03-08T00:15:05;101504.56;;;17.06
63689;BMP280;54895;40.928;14.480;2024-03-08T00:17:32;101512.38;;;16.52
63689;BMP280;54895;40.928;14.480;2024-03-08T00:19:59;101504.66;;;15.77
63689;BMP280;54895;40.928;14.480;2024-03-08T00:22:26;101510.84;;;16.28
63689;BMP280;54895;40.928;14.480;2024-03-08T00:24:52;101510.84;;;16.28
63689;BMP280;54895;40.928;14.480;2024-03-08T00:27:19;101517.91;;;16.53
63689;BMP280;54895;40.928;14.480;2024-03-08T00:29:47;101514.59;;;17.58
63689;BMP280;54895;40.928;14.480;2024-03-08T00:32:13;101524.66;;;18.19
63689;BMP280;54895;40.928;14.480;2024-03-08T00:34:40;101515.16;;;16.31
63689;BMP280;54895;40.928;14.480;2024-03-08T00:37:06;101509.63;;;16.01
63689;BMP280;54895;40.928;14.480;2024-03-08T00:39:33;101506.50;;;16.18
63689;BMP280;54895;40.928;14.480;2024-03-08T00:41:59;101508.25;;;16.15
63689;BMP280;54895;40.928;14.480;2024-03-08T00:44:26;101507.91;;;16.11
63689;BMP280;54895;40.928;14.480;2024-03-08T00:46:53;101506.06;;;16.06
63689;BMP280;54895;40.928;14.480;2024-03-08T00:49:19;101507.59;;;16.22
63689;BMP280;54895;40.928;14.480;2024-03-08T00:51:46;101502.44;;;16.32
63689;BMP280;54895;40.928;14.480;2024-03-08T00:54:12;101502.00;;;16.63
63689;BMP280;54895;40.928;14.480;2024-03-08T00:56:39;101507.41;;;16.78
63689;BMP280;54895;40.928;14.480;2024-03-08T00:59:07;101500.03;;;17.68
63689;BMP280;54895;40.928;14.480;2024-03-08T01:01:33;101505.56;;;18.88
63689;BMP280;54895;40.928;14.480;2024-03-08T01:04:00;101508.44;;;17.87
63689;BMP280;54895;40.928;14.480;2024-03-08T01:06:26;101506.34;;;17.71
63689;BMP280;54895;40.928;14.480;2024-03-08T01:08:53;101507.44;;;17.23
63689;BMP280;54895;40.928;14.480;2024-03-08T01:11:19;101501.34;;;17.37
63689;BMP280;54895;40.928;14.480;2024-03-08T01:13:46;101507.06;;;17.49
63689;BMP280;54895;40.928;14.480;2024-03-08T01:16:13;101506.00;;;17.52
63689;BMP280;54895;40.928;14.480;2024-03-08T01:18:40;101489.88;;;17.37
63689;BMP280;54895;40.928;14.480;2024-03-08T01:21:06;101495.59;;;16.81
63689;BMP280;54895;40.928;14.480;2024-03-08T01:23:33;101492.16;;;16.73
63689;BMP280;54895;40.928;14.480;2024-03-08T01:26:00;101493.78;;;16.76
63689;BMP280;54895;40.928;14.480;2024-03-08T01:28:28;101485.22;;;16.35
63689;BMP280;54895;40.928;14.480;2024-03-08T01:30:55;101485.34;;;16.14
63689;BMP280;54895;40.928;14.480;2024-03-08T01:33:26;101480.56;;;15.92
63689;BMP280;54895;40.928;14.480;2024-03-08T01:35:53;101489.28;;;16.13
63689;BMP280;54895;40.928;14.480;2024-03-08T01:38:20;101482.16;;;16.23
63689;BMP280;54895;40.928;14.480;2024-03-08T01:40:48;101477.06;;;16.05
63689;BMP280;54895;40.928;14.480;2024-03-08T01:43:21;101479.56;;;16.03
63689;BMP280;54895;40.928;14.480;2024-03-08T01:45:49;101478.69;;;16.08
63689;BMP280;54895;40.928;14.480;2024-03-08T01:48:16;101476.03;;;16.15
63689;BMP280;54895;40.928;14.480;2024-03-08T01:50:44;101471.97;;;15.86
63689;BMP280;54895;40.928;14.480;2024-03-08T01:53:12;101467.16;;;15.92
63689;BMP280;54895;40.928;14.480;2024-03-08T01:55:39;101469.22;;;16.07
63689;BMP280;54895;40.928;14.480;2024-03-08T01:58:06;101460.16;;;15.89
63689;BMP280;54895;40.928;14.480;2024-03-08T02:00:34;101456.50;;;15.72
63689;BMP280;54895;40.928;14.480;2024-03-08T02:03:01;101464.59;;;15.79
63689;BMP280;54895;40.928;14.480;2024-03-08T02:05:28;101455.75;;;15.71
63689;BMP280;54895;40.928;14.480;2024-03-08T02:07:55;101453.94;;;15.66
63689;BMP280;54895;40.928;14.480;2024-03-08T02:10:23;101450.78;;;15.75
63689;BMP280;54895;40.928;14.480;2024-03-08T02:12:50;101454.09;;;15.61
63689;BMP280;54895;40.928;14.480;2024-03-08T02:15:17;101452.63;;;15.80
63689;BMP280;54895;40.928;14.480;2024-03-08T02:17:44;101445.88;;;15.94
63689;BMP280;54895;40.928;14.480;2024-03-08T02:20:10;101438.25;;;15.70
63689;BMP280;54895;40.928;14.480;2024-03-08T02:22:39;101444.00;;;15.74
63689;BMP280;54895;40.928;14.480;2024-03-08T02:25:06;101442.97;;;15.85
63689;BMP280;54895;40.928;14.480;2024-03-08T02:27:34;101447.34;;;15.67
63689;BMP280;54895;40.928;14.480;2024-03-08T02:30:00;101450.28;;;15.56
63689;BMP280;54895;40.928;14.480;2024-03-08T02:32:27;101444.66;;;15.67
63689;BMP280;54895;40.928;14.480;2024-03-08T02:34:57;101440.16;;;15.90
63689;BMP280;54895;40.928;14.480;2024-03-08T02:37:26;101441.19;;;15.87
63689;BMP280;54895;40.928;14.480;2024-03-08T02:39:55;101443.78;;;16.00
63689;BMP280;54895;40.928;14.480;2024-03-08T02:42:22;101448.34;;;15.92
63689;BMP280;54895;40.928;14.480;2024-03-08T02:44:49;101442.38;;;16.07
63689;BMP280;54895;40.928;14.480;2024-03-08T02:47:16;101435.00;;;15.64
63689;BMP280;54895;40.928;14.480;2024-03-08T02:49:42;101438.13;;;15.55
63689;BMP280;54895;40.928;14.480;2024-03-08T02:52:09;101430.84;;;15.35
63689;BMP280;54895;40.928;14.480;2024-03-08T02:54:35;101435.66;;;15.57
63689;BMP280;54895;40.928;14.480;2024-03-08T02:57:03;101442.94;;;15.77
63689;BMP280;54895;40.928;14.480;2024-03-08T02:59:30;101431.38;;;15.90
63689;BMP280;54895;40.928;14.480;2024-03-08T03:01:57;101437.16;;;16.01
63689;BMP280;54895;40.928;14.480;2024-03-08T03:04:24;101434.94;;;15.92
63689;BMP280;54895;40.928;14.480;2024-03-08T03:06:50;101450.97;;;15.77
63689;BMP280;54895;40.928;14.480;2024-03-08T03:09:17;101436.09;;;15.76
63689;BMP280;54895;40.928;14.480;2024-03-08T03:11:49;101449.22;;;15.80
63689;BMP280;54895;40.928;14.480;2024-03-08T03:14:16;101432.16;;;15.70
63689;BMP280;54895;40.928;14.480;2024-03-08T03:16:43;101429.78;;;15.94
63689;BMP280;54895;40.928;14.480;2024-03-08T03:19:10;101428.78;;;16.12
63689;BMP280;54895;40.928;14.480;2024-03-08T03:21:37;101432.81;;;15.98
63689;BMP280;54895;40.928;14.480;2024-03-08T03:24:04;101436.25;;;15.99
63689;BMP280;54895;40.928;14.480;2024-03-08T03:26:37;101432.19;;;16.13
63689;BMP280;54895;40.928;14.480;2024-03-08T03:29:07;101429.13;;;16.16
63689;BMP280;54895;40.928;14.480;2024-03-08T03:31:35;101423.09;;;16.23
63689;BMP280;54895;40.928;14.480;2024-03-08T03:34:02;101433.09;;;16.15
63689;BMP280;54895;40.928;14.480;2024-03-08T03:36:30;101429.19;;;16.31
63689;BMP280;54895;40.928;14.480;2024-03-08T03:38:57;101445.31;;;16.31
63689;BMP280;54895;40.928;14.480;2024-03-08T03:41:44;101436.41;;;16.44
63689;BMP280;54895;40.928;14.480;2024-03-08T03:44:12;101440.34;;;19.24
63689;BMP280;54895;40.928;14.480;2024-03-08T03:46:41;101438.63;;;16.90
63689;BMP280;54895;40.928;14.480;2024-03-08T03:49:10;101426.28;;;16.14
63689;BMP280;54895;40.928;14.480;2024-03-08T03:51:37;101428.44;;;16.16
63689;BMP280;54895;40.928;14.480;2024-03-08T03:54:03;101426.25;;;16.07
63689;BMP280;54895;40.928;14.480;2024-03-08T03:56:30;101424.84;;;15.70
63689;BMP280;54895;40.928;14.480;2024-03-08T03:58:56;101427.53;;;15.70
63689;BMP280;54895;40.928;14.480;2024-03-08T04:01:23;101421.53;;;15.57
63689;BMP280;54895;40.928;14.480;2024-03-08T04:03:50;101414.03;;;15.98
63689;BMP280;54895;40.928;14.480;2024-03-08T04:06:17;101411.50;;;15.93
63689;BMP280;54895;40.928;14.480;2024-03-08T04:08:43;101424.16;;;15.77
63689;BMP280;54895;40.928;14.480;2024-03-08T04:11:10;101423.88;;;15.60
63689;BMP280;54895;40.928;14.480;2024-03-08T04:13:37;101425.69;;;15.65
63689;BMP280;54895;40.928;14.480;2024-03-08T04:16:04;101411.94;;;15.76
63689;BMP280;54895;40.928;14.480;2024-03-08T04:18:34;101424.56;;;15.53
63689;BMP280;54895;40.928;14.480;2024-03-08T04:21:07;101420.88;;;15.71
63689;BMP280;54895;40.928;14.480;2024-03-08T04:23:34;101417.84;;;15.67
63689;BMP280;54895;40.928;14.480;2024-03-08T04:26:03;101420.34;;;15.65
63689;BMP280;54895;40.928;14.480;2024-03-08T04:28:31;101421.81;;;15.74
63689;BMP280;54895;40.928;14.480;2024-03-08T04:30:58;101421.03;;;16.01
63689;BMP280;54895;40.928;14.480;2024-03-08T04:33:27;101430.09;;;15.55
63689;BMP280;54895;40.928;14.480;2024-03-08T04:35:54;101429.47;;;15.70
63689;BMP280;54895;40.928;14.480;2024-03-08T04:38:21;101434.59;;;15.60
63689;BMP280;54895;40.928;14.480;2024-03-08T04:40:49;101429.06;;;15.58
63689;BMP280;54895;40.928;14.480;2024-03-08T04:43:16;101437.03;;;15.43
63689;BMP280;54895;40.928;14.480;2024-03-08T04:45:44;101429.19;;;15.81
63689;BMP280;54895;40.928;14.480;2024-03-08T04:48:11;101435.03;;;15.44
63689;BMP280;54895;40.928;14.480;2024-03-08T04:50:38;101435.34;;;15.33
63689;BMP280;54895;40.928;14.480;2024-03-08T04:53:04;101445.00;;;17.54
63689;BMP280;54895;40.928;14.480;2024-03-08T04:55:34;101439.88;;;15.45
63689;BMP280;54895;40.928;14.480;2024-03-08T04:58:01;101445.38;;;15.19
63689;BMP280;54895;40.928;14.480;2024-03-08T05:00:30;101442.66;;;14.91
63689;BMP280;54895;40.928;14.480;2024-03-08T05:02:56;101438.34;;;14.88
63689;BMP280;54895;40.928;14.480;2024-03-08T05:05:23;101442.56;;;14.84
63689;BMP280;54895;40.928;14.480;2024-03-08T05:07:49;101436.25;;;14.94
63689;BMP280;54895;40.928;14.480;2024-03-08T05:10:16;101440.09;;;15.27
63689;BMP280;54895;40.928;14.480;2024-03-08T05:12:44;101441.88;;;15.24
63689;BMP280;54895;40.928;14.480;2024-03-08T05:15:11;101446.47;;;15.16
63689;BMP280;54895;40.928;14.480;2024-03-08T05:17:37;101437.69;;;15.36
63689;BMP280;54895;40.928;14.480;2024-03-08T05:20:06;101446.47;;;15.44
63689;BMP280;54895;40.928;14.480;2024-03-08T05:22:34;101444.41;;;15.30
63689;BMP280;54895;40.928;14.480;2024-03-08T05:25:02;101446.88;;;15.28
63689;BMP280;54895;40.928;14.480;2024-03-08T05:27:28;101446.91;;;15.07
63689;BMP280;54895;40.928;14.480;2024-03-08T05:29:55;101452.97;;;15.28
63689;BMP280;54895;40.928;14.480;2024-03-08T05:32:21;101449.84;;;15.37
63689;BMP280;54895;40.928;14.480;2024-03-08T05:34:49;101448.66;;;15.25
63689;BMP280;54895;40.928;14.480;2024-03-08T05:37:15;101457.06;;;15.29
63689;BMP280;54895;40.928;14.480;2024-03-08T05:39:42;101455.25;;;15.45
63689;BMP280;54895;40.928;14.480;2024-03-08T05:42:09;101460.19;;;15.61
63689;BMP280;54895;40.928;14.480;2024-03-08T05:44:35;101458.69;;;15.81
63689;BMP280;54895;40.928;14.480;2024-03-08T05:47:02;101468.59;;;15.93
63689;BMP280;54895;40.928;14.480;2024-03-08T05:49:29;101471.03;;;16.12
63689;BMP280;54895;40.928;14.480;2024-03-08T05:51:55;101469.56;;;16.11
63689;BMP280;54895;40.928;14.480;2024-03-08T05:54:22;101464.22;;;16.18
63689;BMP280;54895;40.928;14.480;2024-03-08T05:56:50;101473.72;;;16.19
63689;BMP280;54895;40.928;14.480;2024-03-08T05:59:19;101469.06;;;16.70
63689;BMP280;54895;40.928;14.480;2024-03-08T06:01:45;101483.72;;;16.61
63689;BMP280;54895;40.928;14.480;2024-03-08T06:04:13;101492.66;;;16.56
63689;BMP280;54895;40.928;14.480;2024-03-08T06:07:01;101489.16;;;16.99
63689;BMP280;54895;40.928;14.480;2024-03-08T06:09:29;101488.78;;;16.80
63689;BMP280;54895;40.928;14.480;2024-03-08T06:11:56;101490.91;;;16.81
63689;BMP280;54895;40.928;14.480;2024-03-08T06:14:23;101499.38;;;17.23
63689;BMP280;54895;40.928;14.480;2024-03-08T06:16:50;101497.78;;;17.42
63689;BMP280;54895;40.928;14.480;2024-03-08T06:19:16;101488.44;;;17.36
63689;BMP280;54895;40.928;14.480;2024-03-08T06:21:43;101497.38;;;17.53
63689;BMP280;54895;40.928;14.480;2024-03-08T06:24:09;101505.59;;;17.63
63689;BMP280;54895;40.928;14.480;2024-03-08T06:26:36;101502.19;;;17.70
63689;BMP280;54895;40.928;14.480;2024-03-08T06:29:04;101492.19;;;17.10
63689;BMP280;54895;40.928;14.480;2024-03-08T06:31:33;101494.19;;;17.25
63689;BMP280;54895;40.928;14.480;2024-03-08T06:33:59;101499.22;;;17.13
63689;BMP280;54895;40.928;14.480;2024-03-08T06:36:27;101492.22;;;17.18
63689;BMP280;54895;40.928;14.480;2024-03-08T06:38:54;101498.66;;;18.07
63689;BMP280;54895;40.928;14.480;2024-03-08T06:41:21;101493.09;;;17.35
63689;BMP280;54895;40.928;14.480;2024-03-08T06:43:48;101487.78;;;16.40
63689;BMP280;54895;40.928;14.480;2024-03-08T06:46:18;101480.56;;;16.28
63689;BMP280;54895;40.928;14.480;2024-03-08T06:48:46;101486.28;;;16.82
63689;BMP280;54895;40.928;14.480;2024-03-08T06:51:13;101479.47;;;17.11
63689;BMP280;54895;40.928;14.480;2024-03-08T06:53:40;101486.28;;;17.42
63689;BMP280;54895;40.928;14.480;2024-03-08T06:56:07;101493.06;;;17.43
63689;BMP280;54895;40.928;14.480;2024-03-08T06:58:34;101500.88;;;17.86
63689;BMP280;54895;40.928;14.480;2024-03-08T07:01:01;101502.91;;;18.57
63689;BMP280;54895;40.928;14.480;2024-03-08T07:03:30;101515.03;;;19.38
63689;BMP280;54895;40.928;14.480;2024-03-08T07:05:58;101516.00;;;18.92
63689;BMP280;54895;40.928;14.480;2024-03-08T07:08:25;101515.53;;;18.78
63689;BMP280;54895;40.928;14.480;2024-03-08T07:10:54;101501.22;;;18.69
63689;BMP280;54895;40.928;14.480;2024-03-08T07:13:20;101504.75;;;18.47
63689;BMP280;54895;40.928;14.480;2024-03-08T07:15:47;101503.53;;;18.96
63689;BMP280;54895;40.928;14.480;2024-03-08T07:18:14;101507.78;;;19.07
63689;BMP280;54895;40.928;14.480;2024-03-08T07:20:41;101508.34;;;19.22
63689;BMP280;54895;40.928;14.480;2024-03-08T07:23:09;101506.94;;;19.55
63689;BMP280;54895;40.928;14.480;2024-03-08T07:25:36;101494.56;;;19.35
63689;BMP280;54895;40.928;14.480;2024-03-08T07:28:05;101495.41;;;19.21
63689;BMP280;54895;40.928;14.480;2024-03-08T07:30:32;101496.56;;;19.69
63689;BMP280;54895;40.928;14.480;2024-03-08T07:33:11;101502.34;;;20.09
63689;BMP280;54895;40.928;14.480;2024-03-08T07:35:38;101501.06;;;20.36
63689;BMP280;54895;40.928;14.480;2024-03-08T07:38:07;101506.72;;;20.57
63689;BMP280;54895;40.928;14.480;2024-03-08T07:40:38;101500.25;;;20.43
63689;BMP280;54895;40.928;14.480;2024-03-08T07:43:07;101506.16;;;20.59
63689;BMP280;54895;40.928;14.480;2024-03-08T07:45:34;101505.53;;;20.41
63689;BMP280;54895;40.928;14.480;2024-03-08T07:48:02;101506.38;;;20.34
63689;BMP280;54895;40.928;14.480;2024-03-08T07:50:29;101508.75;;;20.66
63689;BMP280;54895;40.928;14.480;2024-03-08T07:52:55;101511.56;;;21.04
63689;BMP280;54895;40.928;14.480;2024-03-08T07:55:22;101509.66;;;20.78
63689;BMP280;54895;40.928;14.480;2024-03-08T07:57:50;101503.16;;;21.28
63689;BMP280;54895;40.928;14.480;2024-03-08T08:00:17;101505.31;;;21.30
63689;BMP280;54895;40.928;14.480;2024-03-08T08:02:44;101496.88;;;22.62
63689;BMP280;54895;40.928;14.480;2024-03-08T08:05:11;101507.88;;;23.94
63689;BMP280;54895;40.928;14.480;2024-03-08T08:07:38;101506.84;;;22.39
63689;BMP280;54895;40.928;14.480;2024-03-08T08:10:06;101504.31;;;21.16
63689;BMP280;54895;40.928;14.480;2024-03-08T08:12:33;101497.91;;;21.11
63689;BMP280;54895;40.928;14.480;2024-03-08T08:15:00;101495.88;;;21.78
63689;BMP280;54895;40.928;14.480;2024-03-08T08:17:26;101493.19;;;21.21
63689;BMP280;54895;40.928;14.480;2024-03-08T08:19:53;101500.63;;;21.21
63689;BMP280;54895;40.928;14.480;2024-03-08T08:22:20;101501.97;;;20.84
63689;BMP280;54895;40.928;14.480;2024-03-08T08:24:46;101498.34;;;21.46
63689;BMP280;54895;40.928;14.480;2024-03-08T08:27:13;101498.63;;;21.69
63689;BMP280;54895;40.928;14.480;2024-03-08T08:29:40;101498.03;;;21.51
63689;BMP280;54895;40.928;14.480;2024-03-08T08:32:07;101502.41;;;21.94
63689;BMP280;54895;40.928;14.480;2024-03-08T08:34:34;101495.03;;;22.25
63689;BMP280;54895;40.928;14.480;2024-03-08T08:37:00;101494.75;;;22.30
63689;BMP280;54895;40.928;14.480;2024-03-08T08:39:27;101489.50;;;22.23
63689;BMP280;54895;40.928;14.480;2024-03-08T08:41:54;101499.25;;;22.07
63689;BMP280;54895;40.928;14.480;2024-03-08T08:44:20;101494.88;;;22.63
63689;BMP280;54895;40.928;14.480;2024-03-08T08:46:47;101492.03;;;22.82
63689;BMP280;54895;40.928;14.480;2024-03-08T08:49:13;101493.97;;;22.70
63689;BMP280;54895;40.928;14.480;2024-03-08T08:51:51;101499.72;;;22.64
63689;BMP280;54895;40.928;14.480;2024-03-08T08:54:18;101497.53;;;22.93
63689;BMP280;54895;40.928;14.480;2024-03-08T08:56:44;101491.91;;;22.80
63689;BMP280;54895;40.928;14.480;2024-03-08T08:59:11;101488.28;;;22.87
63689;BMP280;54895;40.928;14.480;2024-03-08T09:01:40;101499.78;;;22.76
63689;BMP280;54895;40.928;14.480;2024-03-08T09:04:07;101493.69;;;23.29
63689;BMP280;54895;40.928;14.480;2024-03-08T09:06:34;101495.03;;;23.83
63689;BMP280;54895;40.928;14.480;2024-03-08T09:09:02;101491.50;;;24.03
63689;BMP280;54895;40.928;14.480;2024-03-08T09:11:30;101490.38;;;23.63
63689;BMP280;54895;40.928;14.480;2024-03-08T09:13:56;101495.25;;;23.11
63689;BMP280;54895;40.928;14.480;2024-03-08T09:16:23;101494.59;;;24.21
63689;BMP280;54895;40.928;14.480;2024-03-08T09:18:49;101497.38;;;23.12
63689;BMP280;54895;40.928;14.480;2024-03-08T09:21:15;101488.72;;;22.62
63689;BMP280;54895;40.928;14.480;2024-03-08T09:23:43;101492.84;;;23.70
63689;BMP280;54895;40.928;14.480;2024-03-08T09:26:11;101486.63;;;23.79
63689;BMP280;54895;40.928;14.480;2024-03-08T09:28:38;101489.81;;;23.98
63689;BMP280;54895;40.928;14.480;2024-03-08T09:31:05;101484.84;;;23.83
63689;BMP280;54895;40.928;14.480;2024-03-08T09:33:31;101485.03;;;23.53
63689;BMP280;54895;40.928;14.480;2024-03-08T09:35:58;101499.53;;;24.24
63689;BMP280;54895;40.928;14.480;2024-03-08T09:38:24;101483.91;;;23.79
63689;BMP280;54895;40.928;14.480;2024-03-08T09:40:52;101489.09;;;23.86
63689;BMP280;54895;40.928;14.480;2024-03-08T09:43:19;101486.47;;;23.77
63689;BMP280;54895;40.928;14.480;2024-03-08T09:45:48;101482.97;;;24.09
63689;BMP280;54895;40.928;14.480;2024-03-08T09:48:17;101497.84;;;24.42
63689;BMP280;54895;40.928;14.480;2024-03-08T09:50:45;101495.34;;;25.06
63689;BMP280;54895;40.928;14.480;2024-03-08T09:53:12;101488.66;;;24.13
63689;BMP280;54895;40.928;14.480;2024-03-08T09:55:39;101488.06;;;24.74
63689;BMP280;54895;40.928;14.480;2024-03-08T09:58:12;101491.22;;;24.45
63689;BMP280;54895;40.928;14.480;2024-03-08T10:00:54;101495.84;;;24.91
63689;BMP280;54895;40.928;14.480;2024-03-08T10:03:23;101488.19;;;25.12
63689;BMP280;54895;40.928;14.480;2024-03-08T10:05:52;101494.88;;;24.98
63689;BMP280;54895;40.928;14.480;2024-03-08T10:08:18;101493.34;;;25.44
63689;BMP280;54895;40.928;14.480;2024-03-08T10:10:46;101491.50;;;26.41
63689;BMP280;54895;40.928;14.480;2024-03-08T10:13:13;101485.38;;;26.69
63689;BMP280;54895;40.928;14.480;2024-03-08T10:15:40;101490.72;;;26.67
63689;BMP280;54895;40.928;14.480;2024-03-08T10:18:07;101489.06;;;26.20
63689;BMP280;54895;40.928;14.480;2024-03-08T10:20:33;101483.44;;;26.58
63689;BMP280;54895;40.928;14.480;2024-03-08T10:23:01;101485.03;;;25.29
63689;BMP280;54895;40.928;14.480;2024-03-08T10:25:29;101481.88;;;24.25
63689;BMP280;54895;40.928;14.480;2024-03-08T10:27:58;101481.03;;;23.77
63689;BMP280;54895;40.928;14.480;2024-03-08T10:30:25;101476.94;;;23.32
63689;BMP280;54895;40.928;14.480;2024-03-08T10:32:52;101483.19;;;23.02
63689;BMP280;54895;40.928;14.480;2024-03-08T10:35:18;101472.94;;;23.33
63689;BMP280;54895;40.928;14.480;2024-03-08T10:37:48;101474.66;;;22.96
63689;BMP280;54895;40.928;14.480;2024-03-08T10:40:17;101471.69;;;23.57
63689;BMP280;54895;40.928;14.480;2024-03-08T10:42:55;101474.16;;;23.53
63689;BMP280;54895;40.928;14.480;2024-03-08T10:45:36;101478.31;;;23.22
63689;BMP280;54895;40.928;14.480;2024-03-08T10:50:52;101466.28;;;24.14
63689;BMP280;54895;40.928;14.480;2024-03-08T10:53:19;101466.63;;;24.32
63689;BMP280;54895;40.928;14.480;2024-03-08T10:55:50;101461.44;;;23.90
63689;BMP280;54895;40.928;14.480;2024-03-08T10:58:21;101457.69;;;24.06
63689;BMP280;54895;40.928;14.480;2024-03-08T11:00:48;101463.97;;;24.57
63689;BMP280;54895;40.928;14.480;2024-03-08T11:08:49;101462.53;;;24.31
63689;BMP280;54895;40.928;14.480;2024-03-08T11:11:32;101448.75;;;23.60
63689;BMP280;54895;40.928;14.480;2024-03-08T11:14:01;101444.31;;;23.21
63689;BMP280;54895;40.928;14.480;2024-03-08T11:19:00;101442.78;;;23.96
63689;BMP280;54895;40.928;14.480;2024-03-08T11:21:31;101442.94;;;24.46
63689;BMP280;54895;40.928;14.480;2024-03-08T11:24:07;101439.28;;;24.89
63689;BMP280;54895;40.928;14.480;2024-03-08T11:26:34;101436.38;;;24.26
63689;BMP280;54895;40.928;14.480;2024-03-08T11:32:16;101422.44;;;24.20
63689;BMP280;54895;40.928;14.480;2024-03-08T11:34:47;101424.53;;;24.33
63689;BMP280;54895;40.928;14.480;2024-03-08T11:37:15;101417.72;;;24.09
63689;BMP280;54895;40.928;14.480;2024-03-08T11:39:52;101422.59;;;24.47
63689;BMP280;54895;40.928;14.480;2024-03-08T11:42:19;101421.41;;;24.50
63689;BMP280;54895;40.928;14.480;2024-03-08T11:44:46;101415.31;;;24.38
63689;BMP280;54895;40.928;14.480;2024-03-08T11:47:14;101419.47;;;24.64
63689;BMP280;54895;40.928;14.480;2024-03-08T11:49:42;101423.22;;;24.82
63689;BMP280;54895;40.928;14.480;2024-03-08T11:52:11;101409.69;;;25.08
63689;BMP280;54895;40.928;14.480;2024-03-08T11:54:41;101408.28;;;25.46
63689;BMP280;54895;40.928;14.480;2024-03-08T11:57:09;101403.66;;;25.62
63689;BMP280;54895;40.928;14.480;2024-03-08T11:59:38;101406.44;;;25.50
63689;BMP280;54895;40.928;14.480;2024-03-08T12:02:05;101407.56;;;24.46
63689;BMP280;54895;40.928;14.480;2024-03-08T12:04:33;101400.91;;;25.10
63689;BMP280;54895;40.928;14.480;2024-03-08T12:07:00;101404.44;;;24.99
63689;BMP280;54895;40.928;14.480;2024-03-08T12:09:38;101401.50;;;25.47
63689;BMP280;54895;40.928;14.480;2024-03-08T12:12:06;101397.81;;;24.91
63689;BMP280;54895;40.928;14.480;2024-03-08T12:14:34;101395.63;;;25.01
63689;BMP280;54895;40.928;14.480;2024-03-08T12:17:01;101400.72;;;25.19
63689;BMP280;54895;40.928;14.480;2024-03-08T12:23:44;101389.97;;;24.97
63689;BMP280;54895;40.928;14.480;2024-03-08T12:26:23;101381.97;;;24.26
63689;BMP280;54895;40.928;14.480;2024-03-08T12:28:52;101379.66;;;24.82
63689;BMP280;54895;40.928;14.480;2024-03-08T12:31:18;101372.75;;;24.31
63689;BMP280;54895;40.928;14.480;2024-03-08T12:33:54;101370.91;;;24.10
63689;BMP280;54895;40.928;14.480;2024-03-08T12:36:25;101366.22;;;23.65
63689;BMP280;54895;40.928;14.480;2024-03-08T12:38:53;101371.00;;;24.49
63689;BMP280;54895;40.928;14.480;2024-03-08T12:41:20;101362.38;;;24.16
63689;BMP280;54895;40.928;14.480;2024-03-08T12:43:47;101370.41;;;24.62
63689;BMP280;54895;40.928;14.480;2024-03-08T12:46:17;101360.84;;;24.01
63689;BMP280;54895;40.928;14.480;2024-03-08T12:48:46;101359.47;;;24.37
63689;BMP280;54895;40.928;14.480;2024-03-08T12:51:16;101349.88;;;24.72
63689;BMP280;54895;40.928;14.480;2024-03-08T12:53:44;101348.50;;;24.60
63689;BMP280;54895;40.928;14.480;2024-03-08T12:56:33;101350.38;;;24.69
63689;BMP280;54895;40.928;14.480;2024-03-08T12:59:00;101345.91;;;24.62
63689;BMP280;54895;40.928;14.480;2024-03-08T13:01:27;101341.81;;;24.01
63689;BMP280;54895;40.928;14.480;2024-03-08T13:03:53;101342.19;;;23.73
63689;BMP280;54895;40.928;14.480;2024-03-08T13:06:22;101326.03;;;23.29
63689;BMP280;54895;40.928;14.480;2024-03-08T13:08:51;101342.28;;;24.09
63689;BMP280;54895;40.928;14.480;2024-03-08T13:11:22;101330.25;;;24.01
63689;BMP280;54895;40.928;14.480;2024-03-08T13:13:49;101334.03;;;23.73
63689;BMP280;54895;40.928;14.480;2024-03-08T13:16:16;101344.59;;;24.38
63689;BMP280;54895;40.928;14.480;2024-03-08T13:18:43;101342.84;;;24.56
63689;BMP280;54895;40.928;14.480;2024-03-08T13:24:02;101334.94;;;24.48
63689;BMP280;54895;40.928;14.480;2024-03-08T13:26:29;101332.22;;;26.79
63689;BMP280;54895;40.928;14.480;2024-03-08T13:28:58;101332.94;;;25.12
63689;BMP280;54895;40.928;14.480;2024-03-08T13:31:25;101335.78;;;24.76
63689;BMP280;54895;40.928;14.480;2024-03-08T13:33:51;101329.63;;;24.14
63689;BMP280;54895;40.928;14.480;2024-03-08T13:36:24;101330.94;;;23.90
63689;BMP280;54895;40.928;14.480;2024-03-08T13:38:55;101329.66;;;24.39
63689;BMP280;54895;40.928;14.480;2024-03-08T13:41:25;101318.41;;;24.08
63689;BMP280;54895;40.928;14.480;2024-03-08T13:43:52;101318.50;;;24.71
63689;BMP280;54895;40.928;14.480;2024-03-08T13:46:19;101314.72;;;24.51
63689;BMP280;54895;40.928;14.480;2024-03-08T13:48:46;101315.47;;;24.40
63689;BMP280;54895;40.928;14.480;2024-03-08T13:51:12;101306.47;;;24.63
63689;BMP280;54895;40.928;14.480;2024-03-08T13:53:41;101303.75;;;23.90
63689;BMP280;54895;40.928;14.480;2024-03-08T13:56:08;101315.44;;;24.52
63689;BMP280;54895;40.928;14.480;2024-03-08T13:58:37;101309.19;;;24.63
63689;BMP280;54895;40.928;14.480;2024-03-08T14:01:06;101313.88;;;24.74
63689;BMP280;54895;40.928;14.480;2024-03-08T14:03:37;101310.06;;;24.79
63689;BMP280;54895;40.928;14.480;2024-03-08T14:06:08;101307.53;;;25.08
63689;BMP280;54895;40.928;14.480;2024-03-08T14:08:35;101299.25;;;25.06